Overview Statistics Trail Chart Weather Telemetry Raw packets
 

This is the latest recevied weather packets stored in our database for station/object IQ5VK-13. If no packets are shown the sender has not sent any weather packets the latest 10 day(s).

<< 7 8 9 10 11 12 13 >>
Time Temp. Humidity Pressure Rain* Wind** Luminosity Snow
1788276167 28.33° C 46% 1022.5 hPa - - - -
1788274967 28.89° C 44% 1022.3 hPa - - - -
1788272567 28.89° C 41% 1022.6 hPa - - - -
1788270166 28.89° C 38% 1022.6 hPa - - - -
1788268966 28.89° C 39% 1022.7 hPa - - - -
1788267768 28.33° C 40% 1022.8 hPa - - - -
1788266568 28.33° C 41% 1022.9 hPa - - - -
1788265362 28.33° C 41% 1023 hPa - - - -
1788261769 27.78° C 42% 1022.8 hPa - - - -
1788260569 27.78° C 41% 1022.9 hPa - - - -
1788259368 27.78° C 41% 1022.8 hPa - - - -
1788258168 27.78° C 39% 1022.7 hPa - - - -
1788256968 27.78° C 39% 1022.8 hPa - - - -
1788255767 27.78° C 40% 1022.9 hPa - - - -
1788254567 28.33° C 43% 1022.9 hPa - - - -
1788253367 27.22° C 47% 1022.9 hPa - - - -
1788252169 27.22° C 49% 1022.9 hPa - - - -
1788250964 26.67° C 52% 1022.8 hPa - - - -
1788249817 25.56° C 56% 1022.6 hPa - - - -
1788249763 25.56° C 56% 1022.6 hPa - - - -
1788248563 25° C 61% 1022.5 hPa - - - -
1788247363 25° C 62% 1022.2 hPa - - - -
1788246162 23.89° C 65% 1022.1 hPa - - - -
1788244965 23.33° C 67% 1022 hPa - - - -
1788243769 22.78° C 68% 1022 hPa - - - -

* Rain since midnight (hover to see other rain measurements)
** Current wind speed in m/s (hover to see current wind gust speed)